Time;durP1;ratioP1;P1;durP2;ratioP2;P2;SDS_P1;SDS_P2;PMS_P1;PMS_P2;Temp;Humidity;BMP_temperature;BMP_pressure;BME280_temperature;BME280_humidity;BME280_pressure;Samples;Min_cycle;Max_cycle;Signal;HPM_P1;HPM_P2
2022/05/04 00:00:27;;;;;;;4.00;1.80;;;13.00;53.40;;;;;;5037510;28;20784;-83
2022/05/04 00:02:53;;;;;;;4.87;2.00;;;12.90;53.50;;;;;;5026764;28;20169;-82
2022/05/04 00:05:19;;;;;;;5.32;2.00;;;12.90;53.50;;;;;;5044031;28;20029;-83
2022/05/04 00:07:45;;;;;;;2.72;1.70;;;12.90;53.60;;;;;;5036222;28;20465;-82
2022/05/04 00:10:10;;;;;;;2.50;1.70;;;12.80;53.60;;;;;;5042470;28;20036;-83
2022/05/04 00:12:36;;;;;;;3.40;1.70;;;12.80;53.80;;;;;;5037557;28;20029;-83
2022/05/04 00:15:03;;;;;;;3.88;1.92;;;12.80;53.90;;;;;;5043732;28;20483;-82
2022/05/04 00:17:29;;;;;;;3.08;1.90;;;12.70;54.00;;;;;;5051443;28;20497;-82
2022/05/04 00:19:55;;;;;;;3.30;2.00;;;12.70;54.00;;;;;;5032586;28;20060;-82
2022/05/04 00:22:22;;;;;;;4.25;1.95;;;12.70;54.10;;;;;;5025145;28;20032;-82
2022/05/04 00:24:49;;;;;;;3.93;1.80;;;12.70;54.20;;;;;;5030401;28;20547;-82
2022/05/04 00:27:15;;;;;;;4.10;2.00;;;12.60;54.30;;;;;;5033142;28;20031;-82
2022/05/04 00:29:44;;;;;;;3.22;1.98;;;12.60;54.40;;;;;;5046205;28;20033;-82
2022/05/04 00:32:11;;;;;;;4.53;2.00;;;12.60;54.80;;;;;;5034654;28;20480;-82
2022/05/04 00:34:37;;;;;;;3.95;1.95;;;12.60;54.60;;;;;;5034040;28;20771;-82
2022/05/04 00:37:03;;;;;;;3.13;1.63;;;12.50;54.50;;;;;;5050097;28;20032;-82
2022/05/04 00:39:29;;;;;;;4.03;1.73;;;12.50;54.70;;;;;;5021587;28;20060;-82
2022/05/04 00:42:12;;;;;;;3.72;1.90;;;12.50;55.00;;;;;;5039450;28;20265;-83
2022/05/04 00:44:38;;;;;;;4.47;2.00;;;12.50;56.00;;;;;;5039441;28;20036;-82
2022/05/04 00:47:05;;;;;;;3.47;1.80;;;12.50;55.00;;;;;;5074142;28;20024;-83
2022/05/04 00:49:31;;;;;;;3.40;2.03;;;12.40;55.00;;;;;;5025933;28;20033;-82
2022/05/04 00:51:57;;;;;;;4.90;2.28;;;12.40;55.10;;;;;;5052361;28;20036;-83
2022/05/04 00:54:23;;;;;;;3.33;2.00;;;12.40;55.40;;;;;;5019492;28;20679;-83
2022/05/04 00:56:49;;;;;;;4.63;1.90;;;12.40;55.50;;;;;;5047910;28;20593;-82
2022/05/04 00:59:15;;;;;;;5.50;2.10;;;12.40;55.50;;;;;;5055583;28;20029;-83
2022/05/04 01:01:42;;;;;;;3.08;2.00;;;12.30;56.10;;;;;;5058037;28;20519;-83
2022/05/04 01:04:07;;;;;;;4.82;2.10;;;12.30;55.50;;;;;;5043754;28;20498;-83
2022/05/04 01:06:33;;;;;;;4.40;1.97;;;12.30;55.50;;;;;;5043947;28;20044;-82
2022/05/04 01:08:59;;;;;;;3.65;2.05;;;12.30;55.70;;;;;;5034187;28;20244;-82
2022/05/04 01:11:24;;;;;;;3.33;1.90;;;12.30;55.70;;;;;;5044310;28;20528;-83
2022/05/04 01:14:04;;;;;;;4.40;1.90;;;12.20;55.70;;;;;;5033457;28;20029;-83
2022/05/04 01:16:31;;;;;;;3.83;1.90;;;12.30;57.20;;;;;;5038652;28;20458;-83
2022/05/04 01:18:57;;;;;;;3.92;2.08;;;12.20;56.00;;;;;;5038146;28;20043;-82
2022/05/04 01:21:22;;;;;;;3.30;2.00;;;12.30;56.10;;;;;;5039218;28;20036;-82
2022/05/04 01:23:49;;;;;;;3.23;1.90;;;12.30;56.30;;;;;;5014151;28;20291;-82
2022/05/04 01:26:18;;;;;;;4.22;1.95;;;12.30;56.40;;;;;;5042061;28;20021;-83
2022/05/04 01:28:47;;;;;;;2.80;1.65;;;12.40;56.70;;;;;;5043634;28;20123;-82
2022/05/04 01:31:13;;;;;;;3.95;2.00;;;12.40;57.00;;;;;;5033365;28;20115;-83
2022/05/04 01:33:39;;;;;;;3.97;1.90;;;12.40;56.70;;;;;;5036599;28;20036;-83
2022/05/04 01:36:06;;;;;;;4.43;1.95;;;12.50;56.80;;;;;;5057747;28;20040;-83
2022/05/04 01:38:32;;;;;;;3.40;2.10;;;12.50;57.60;;;;;;5014997;28;20063;-82
2022/05/04 01:40:58;;;;;;;4.35;2.03;;;12.60;57.10;;;;;;5051388;28;20600;-83
2022/05/04 01:43:24;;;;;;;2.73;1.73;;;12.60;57.10;;;;;;5048663;28;20032;-83
2022/05/04 01:45:49;;;;;;;4.68;2.00;;;12.60;56.90;;;;;;5048725;28;20056;-83
2022/05/04 01:48:15;;;;;;;4.83;2.13;;;12.70;57.00;;;;;;5056617;28;20447;-82
2022/05/04 01:50:40;;;;;;;3.97;2.17;;;12.70;57.10;;;;;;5052709;28;20068;-82
2022/05/04 01:53:06;;;;;;;5.13;2.10;;;12.80;57.10;;;;;;5048364;28;20029;-82
2022/05/04 01:55:36;;;;;;;3.95;1.90;;;12.80;57.10;;;;;;5015944;28;20083;-83
2022/05/04 01:58:02;;;;;;;2.97;1.92;;;12.80;58.10;;;;;;5077116;28;20047;-82
2022/05/04 02:00:28;;;;;;;4.37;2.00;;;12.80;57.10;;;;;;5048512;28;20035;-82
2022/05/04 02:02:54;;;;;;;3.08;2.10;;;12.80;57.00;;;;;;5058148;28;20028;-82
2022/05/04 02:05:21;;;;;;;3.22;2.00;;;12.80;57.00;;;;;;5046476;28;20028;-83
2022/05/04 02:07:48;;;;;;;3.87;2.17;;;12.80;57.10;;;;;;5039603;28;20631;-83
2022/05/04 02:10:14;;;;;;;3.60;2.22;;;12.90;57.10;;;;;;5040355;28;20075;-82
2022/05/04 02:12:41;;;;;;;4.50;1.90;;;12.90;57.00;;;;;;5050856;28;20044;-83
2022/05/04 02:15:08;;;;;;;4.30;2.00;;;12.90;57.00;;;;;;5057438;28;20257;-83
2022/05/04 02:17:34;;;;;;;4.32;2.00;;;12.90;57.00;;;;;;5043255;28;20694;-83
2022/05/04 02:20:01;;;;;;;3.13;2.07;;;12.90;57.00;;;;;;5035841;28;20124;-83
2022/05/04 02:22:26;;;;;;;3.60;2.00;;;12.90;57.00;;;;;;5049063;28;20020;-83
2022/05/04 02:24:52;;;;;;;4.07;1.83;;;12.90;56.90;;;;;;5037938;28;20516;-82
2022/05/04 02:27:18;;;;;;;4.80;2.27;;;12.90;56.90;;;;;;5044281;28;20496;-83
2022/05/04 02:29:44;;;;;;;3.72;2.10;;;12.90;56.80;;;;;;5055312;28;20270;-83
2022/05/04 02:32:09;;;;;;;3.20;1.80;;;12.90;56.80;;;;;;5053019;28;20033;-83
2022/05/04 02:37:54;;;;;;;3.63;1.90;;;12.90;57.00;;;;;;5041101;28;20146;-83
2022/05/04 02:40:10;;;;;;;3.80;2.10;;;12.80;57.10;;;;;;5054173;28;20037;-83
2022/05/04 02:42:36;;;;;;;4.45;2.00;;;12.90;57.10;;;;;;5024972;28;20040;-82
2022/05/04 02:45:03;;;;;;;4.60;1.92;;;12.90;57.20;;;;;;5072825;28;20032;-83
2022/05/04 02:47:29;;;;;;;4.25;1.88;;;12.80;57.20;;;;;;5035081;28;20399;-83
2022/05/04 02:49:55;;;;;;;3.83;2.00;;;12.90;57.30;;;;;;5033479;28;20032;-83
2022/05/04 02:52:20;;;;;;;3.35;1.88;;;12.90;57.30;;;;;;5062325;28;20028;-82
2022/05/04 02:54:46;;;;;;;3.57;1.73;;;12.90;57.40;;;;;;5052356;28;20384;-82
2022/05/04 02:57:11;;;;;;;4.70;1.98;;;12.90;57.30;;;;;;5025375;28;20024;-83
2022/05/04 02:59:37;;;;;;;3.97;2.00;;;12.90;57.30;;;;;;5059766;28;20102;-83
2022/05/04 03:04:47;;;;;;;4.78;2.08;;;12.80;57.20;;;;;;5062390;28;20465;-83
2022/05/04 03:07:12;;;;;;;4.40;1.90;;;12.90;58.00;;;;;;5041611;28;20243;-83
2022/05/04 03:09:38;;;;;;;2.80;1.83;;;12.80;57.30;;;;;;5034891;28;20105;-83
2022/05/04 03:12:04;;;;;;;4.33;2.20;;;12.80;57.30;;;;;;5016095;28;20226;-82
2022/05/04 03:14:30;;;;;;;3.47;1.88;;;12.80;57.50;;;;;;5058783;28;20362;-83
2022/05/04 03:16:56;;;;;;;4.63;2.03;;;12.80;57.50;;;;;;5052093;28;20040;-82
2022/05/04 03:19:23;;;;;;;5.53;2.10;;;12.80;57.60;;;;;;5055903;28;20044;-83
2022/05/04 03:21:48;;;;;;;4.90;2.15;;;12.70;57.50;;;;;;5074851;28;20081;-83
2022/05/04 03:24:15;;;;;;;3.72;1.85;;;12.70;57.50;;;;;;5039343;28;20274;-83
2022/05/04 03:26:41;;;;;;;3.22;2.00;;;12.70;57.30;;;;;;5033591;28;20044;-82
2022/05/04 03:29:06;;;;;;;3.60;2.00;;;12.60;57.30;;;;;;5036721;28;20221;-83
2022/05/04 03:31:32;;;;;;;2.88;1.85;;;12.60;57.20;;;;;;5038512;28;20071;-83
2022/05/04 03:33:58;;;;;;;4.47;2.22;;;12.50;57.20;;;;;;5032024;28;20090;-83
2022/05/04 03:36:24;;;;;;;2.97;1.80;;;12.40;57.20;;;;;;5048753;28;20478;-83
2022/05/04 03:38:49;;;;;;;4.45;2.10;;;12.40;57.20;;;;;;5057893;28;20036;-83
2022/05/04 03:41:16;;;;;;;3.00;2.00;;;12.40;57.30;;;;;;5036232;28;20021;-83
2022/05/04 03:43:42;;;;;;;4.63;1.98;;;12.30;57.30;;;;;;5042112;28;20055;-83
2022/05/04 03:46:19;;;;;;;4.03;2.07;;;12.20;57.30;;;;;;5057288;28;20634;-83
2022/05/04 03:48:46;;;;;;;3.47;2.03;;;12.10;58.10;;;;;;5034782;28;20111;-83
2022/05/04 03:51:18;;;;;;;4.00;1.80;;;12.00;57.30;;;;;;5058473;28;20225;-83
2022/05/04 03:53:45;;;;;;;5.43;2.10;;;12.00;57.30;;;;;;5058046;28;20029;-83
2022/05/04 03:56:11;;;;;;;4.40;2.20;;;12.00;57.40;;;;;;5061928;28;20126;-82
2022/05/04 03:58:37;;;;;;;3.20;1.90;;;11.90;57.40;;;;;;5023810;28;20044;-83
2022/05/04 04:01:04;;;;;;;3.78;2.05;;;11.90;57.40;;;;;;5057467;28;20260;-83
2022/05/04 04:03:30;;;;;;;3.50;2.17;;;11.80;57.40;;;;;;5047428;28;20024;-83
2022/05/04 04:05:55;;;;;;;3.43;1.80;;;11.70;57.30;;;;;;5056646;28;20503;-83
2022/05/04 04:08:21;;;;;;;3.80;1.90;;;11.60;57.30;;;;;;5042672;28;20543;-83
2022/05/04 04:10:47;;;;;;;3.73;2.30;;;11.60;57.50;;;;;;5057495;28;20513;-83
2022/05/04 04:13:13;;;;;;;3.42;1.83;;;11.50;57.50;;;;;;5032423;28;20177;-83
2022/05/04 04:15:39;;;;;;;3.60;2.22;;;11.40;57.50;;;;;;5040005;28;20041;-83
2022/05/04 04:18:05;;;;;;;2.60;1.77;;;11.40;57.50;;;;;;5049694;28;20350;-83
2022/05/04 04:23:22;;;;;;;3.90;1.90;;;11.20;57.60;;;;;;5027041;28;20235;-83
2022/05/04 04:25:48;;;;;;;3.30;1.80;;;11.10;57.50;;;;;;5040733;28;20056;-83
2022/05/04 04:28:14;;;;;;;3.67;1.92;;;11.00;57.60;;;;;;5050493;28;20051;-82
2022/05/04 04:30:40;;;;;;;3.13;1.90;;;11.00;57.70;;;;;;5042091;28;20024;-83
2022/05/04 04:33:06;;;;;;;3.70;2.30;;;10.90;57.80;;;;;;5045771;28;20028;-83
2022/05/04 04:35:36;;;;;;;4.72;2.20;;;10.80;58.00;;;;;;5033597;28;20032;-83
2022/05/04 04:38:02;;;;;;;3.58;2.17;;;10.80;58.40;;;;;;5039453;28;20117;-83
2022/05/04 04:40:28;;;;;;;4.83;2.20;;;10.70;58.20;;;;;;5042411;28;20036;-83
2022/05/04 04:42:54;;;;;;;3.85;2.20;;;10.60;58.30;;;;;;5034403;28;20549;-83
2022/05/04 04:45:19;;;;;;;4.75;2.47;;;10.60;58.40;;;;;;5019476;28;20074;-83
2022/05/04 04:47:46;;;;;;;4.87;2.00;;;10.60;58.60;;;;;;5057800;28;20051;-83
2022/05/04 04:50:11;;;;;;;3.85;2.03;;;10.50;58.70;;;;;;5040006;28;20417;-82
2022/05/04 04:52:37;;;;;;;3.47;2.00;;;10.50;58.80;;;;;;5049532;28;20032;-83
2022/05/04 04:55:04;;;;;;;3.65;2.00;;;10.50;58.80;;;;;;5056047;28;20052;-83
2022/05/04 04:57:29;;;;;;;4.18;1.90;;;10.40;58.80;;;;;;5034343;28;20040;-83
2022/05/04 04:59:55;;;;;;;4.97;2.27;;;10.40;58.80;;;;;;5028347;28;20029;-83
2022/05/04 05:02:21;;;;;;;4.57;2.10;;;10.40;59.00;;;;;;5047712;28;20037;-83
2022/05/04 05:04:46;;;;;;;3.73;1.93;;;10.40;59.10;;;;;;5039743;28;20688;-83
2022/05/04 05:07:12;;;;;;;4.97;2.13;;;10.30;59.10;;;;;;5035385;28;20087;-83
2022/05/04 05:09:37;;;;;;;3.27;2.00;;;10.30;59.30;;;;;;5044744;28;20515;-83
2022/05/04 05:12:03;;;;;;;4.07;2.10;;;10.30;59.30;;;;;;5032680;28;20044;-83
2022/05/04 05:17:13;;;;;;;5.10;2.10;;;10.30;59.50;;;;;;5052022;28;20155;-83
2022/05/04 05:19:39;;;;;;;4.10;2.30;;;10.30;59.60;;;;;;5029989;28;20089;-82
2022/05/04 05:22:05;;;;;;;5.28;2.35;;;10.30;59.70;;;;;;5016626;28;20400;-82
2022/05/04 05:24:31;;;;;;;3.50;2.10;;;10.30;59.90;;;;;;5026169;28;20028;-83
2022/05/04 05:26:56;;;;;;;4.67;2.30;;;10.40;60.20;;;;;;5048241;28;20500;-83
2022/05/04 05:29:22;;;;;;;4.60;2.30;;;10.40;60.20;;;;;;5028167;28;20036;-83
2022/05/04 05:31:47;;;;;;;4.55;2.15;;;10.40;60.30;;;;;;5040138;28;20338;-83
2022/05/04 05:34:13;;;;;;;6.07;1.80;;;10.40;60.30;;;;;;5032946;28;20036;-83
2022/05/04 05:36:39;;;;;;;4.97;2.33;;;10.40;60.40;;;;;;5043015;28;21478;-82
2022/05/04 05:39:04;;;;;;;2.80;2.00;;;10.50;60.40;;;;;;5029433;28;20044;-83
2022/05/04 05:41:31;;;;;;;4.15;2.00;;;10.50;60.60;;;;;;5045944;28;20554;-83
2022/05/04 05:43:56;;;;;;;5.43;2.30;;;10.60;60.70;;;;;;5032627;28;20081;-85
2022/05/04 05:46:22;;;;;;;3.53;2.20;;;10.60;60.90;;;;;;5030044;28;20021;-83
2022/05/04 05:48:48;;;;;;;4.17;2.33;;;10.60;61.00;;;;;;5042839;28;20340;-83
2022/05/04 05:51:14;;;;;;;4.50;2.20;;;10.70;61.10;;;;;;5058937;28;20287;-83
2022/05/04 05:53:39;;;;;;;5.50;2.35;;;10.80;61.30;;;;;;5017294;28;20045;-84
2022/05/04 05:56:06;;;;;;;4.87;2.53;;;10.80;61.30;;;;;;5045966;28;20029;-85
2022/05/04 05:58:32;;;;;;;4.10;2.05;;;10.90;61.40;;;;;;5040320;28;20111;-85
2022/05/04 06:00:58;;;;;;;4.45;2.30;;;10.90;61.40;;;;;;5036149;28;20029;-82
2022/05/04 06:03:23;;;;;;;4.17;1.97;;;11.00;61.40;;;;;;5034244;28;20117;-82
2022/05/04 06:05:49;;;;;;;5.45;2.20;;;11.10;61.50;;;;;;5037826;28;20416;-83
2022/05/04 06:08:15;;;;;;;3.37;1.97;;;11.20;61.50;;;;;;5027714;28;20036;-82
2022/05/04 06:10:41;;;;;;;3.05;1.80;;;11.20;61.50;;;;;;5049153;28;20266;-82
2022/05/04 06:13:07;;;;;;;4.45;2.50;;;11.30;61.70;;;;;;5052801;28;20543;-82
2022/05/04 06:15:33;;;;;;;4.67;1.90;;;11.40;61.70;;;;;;5023714;28;20149;-83
2022/05/04 06:18:01;;;;;;;5.15;2.25;;;11.50;61.60;;;;;;5024758;28;20041;-83
2022/05/04 06:20:27;;;;;;;4.05;2.00;;;11.60;61.60;;;;;;5036507;28;20024;-85
2022/05/04 06:22:53;;;;;;;4.15;1.83;;;11.80;61.60;;;;;;5026992;28;20039;-85
2022/05/04 06:25:19;;;;;;;6.05;2.25;;;11.90;61.50;;;;;;5033176;28;20060;-83
2022/05/04 06:27:44;;;;;;;3.80;2.40;;;11.90;61.40;;;;;;5031325;28;20729;-83
2022/05/04 06:35:39;;;;;;;3.97;1.83;;;12.30;61.30;;;;;;5059354;28;20036;-83
2022/05/04 06:38:05;;;;;;;3.47;1.83;;;12.40;60.80;;;;;;5029605;28;20041;-82
2022/05/04 06:40:31;;;;;;;2.83;1.70;;;12.50;60.90;;;;;;5064758;28;20130;-83
2022/05/04 06:42:57;;;;;;;4.00;1.60;;;12.60;60.80;;;;;;5047799;28;20082;-82
2022/05/04 06:45:23;;;;;;;5.20;2.10;;;12.70;61.30;;;;;;5054205;28;20070;-83
2022/05/04 06:47:48;;;;;;;2.97;1.80;;;12.80;60.40;;;;;;5057299;28;20049;-83
2022/05/04 06:50:15;;;;;;;4.50;1.90;;;12.90;60.40;;;;;;5047031;28;20242;-83
2022/05/04 06:52:41;;;;;;;5.60;2.03;;;13.00;60.40;;;;;;5038272;28;20157;-83
2022/05/04 06:55:07;;;;;;;5.13;2.03;;;13.10;60.20;;;;;;5031329;28;20032;-82
2022/05/04 06:57:33;;;;;;;3.97;2.13;;;13.20;59.90;;;;;;5056825;28;20239;-83
2022/05/04 06:59:59;;;;;;;4.60;2.28;;;13.30;59.90;;;;;;5071314;28;20033;-83
2022/05/04 07:02:26;;;;;;;5.07;2.08;;;13.40;59.90;;;;;;5066030;28;20058;-83
2022/05/04 07:04:51;;;;;;;4.83;2.00;;;13.50;60.00;;;;;;5053716;28;20037;-83
2022/05/04 07:07:17;;;;;;;4.38;2.10;;;13.60;59.90;;;;;;5044114;28;20082;-83
2022/05/04 07:09:42;;;;;;;4.47;2.20;;;13.70;59.90;;;;;;5013967;28;20125;-82
2022/05/04 07:12:08;;;;;;;4.68;2.15;;;13.80;59.70;;;;;;5036192;28;20021;-82
2022/05/04 07:14:34;;;;;;;3.83;2.13;;;13.90;59.60;;;;;;5048638;28;20225;-83
2022/05/04 07:17:00;;;;;;;3.90;1.85;;;14.00;59.70;;;;;;5031419;28;20036;-83
2022/05/04 07:19:26;;;;;;;6.10;2.03;;;14.10;59.70;;;;;;5045360;28;20041;-83
2022/05/04 07:21:51;;;;;;;3.53;1.90;;;14.30;59.80;;;;;;5041500;28;20040;-83
2022/05/04 07:24:17;;;;;;;4.28;2.15;;;14.40;59.80;;;;;;5046180;28;20032;-83
2022/05/04 07:26:43;;;;;;;5.17;2.20;;;14.70;60.00;;;;;;5021586;28;20134;-83
2022/05/04 07:29:10;;;;;;;3.67;2.08;;;14.80;59.90;;;;;;5052871;28;20105;-83
2022/05/04 07:31:37;;;;;;;4.68;2.10;;;15.00;59.60;;;;;;5025353;28;20292;-82
2022/05/04 07:34:03;;;;;;;4.43;2.10;;;15.20;59.60;;;;;;5051709;28;20043;-83
2022/05/04 07:36:29;;;;;;;5.40;2.30;;;15.40;59.40;;;;;;5023076;28;20811;-82
2022/05/04 07:38:54;;;;;;;4.72;2.05;;;15.60;59.60;;;;;;5028769;28;20032;-83
2022/05/04 07:44:04;;;;;;;5.43;2.00;;;16.10;60.00;;;;;;5056111;28;20324;-83
2022/05/04 07:46:30;;;;;;;5.63;2.17;;;16.40;61.00;;;;;;5034167;28;20036;-83
2022/05/04 07:48:55;;;;;;;4.55;2.20;;;16.80;62.20;;;;;;5034925;28;20042;-83
2022/05/04 07:51:21;;;;;;;5.87;2.47;;;17.30;62.80;;;;;;5018343;28;20043;-82
2022/05/04 07:53:47;;;;;;;4.22;2.20;;;17.70;62.20;;;;;;5042033;28;20485;-83
2022/05/04 07:56:13;;;;;;;4.32;2.38;;;18.30;62.00;;;;;;5026434;28;20040;-83
2022/05/04 07:58:38;;;;;;;3.07;2.23;;;18.80;61.40;;;;;;5053937;28;20257;-83
2022/05/04 08:06:33;;;;;;;4.40;2.20;;;20.20;60.50;;;;;;5059021;28;20171;-83
2022/05/04 08:08:58;;;;;;;4.22;2.25;;;20.70;59.50;;;;;;5025814;28;20036;-83
2022/05/04 08:11:24;;;;;;;6.20;2.47;;;21.10;59.10;;;;;;5042075;28;20032;-83
2022/05/04 08:13:50;;;;;;;5.22;3.00;;;21.60;58.80;;;;;;5047405;28;20020;-83
2022/05/04 08:16:15;;;;;;;5.17;3.17;;;22.00;57.60;;;;;;5050453;28;20063;-83
2022/05/04 08:18:41;;;;;;;5.47;3.13;;;22.40;57.30;;;;;;5058966;28;20699;-83
2022/05/04 08:21:08;;;;;;;6.33;3.07;;;22.80;56.60;;;;;;5056101;28;20101;-83
2022/05/04 08:23:34;;;;;;;6.07;3.42;;;23.30;56.10;;;;;;5027264;28;20312;-83
2022/05/04 08:26:01;;;;;;;7.10;3.80;;;23.70;55.30;;;;;;5054879;28;20048;-84
2022/05/04 08:28:27;;;;;;;5.72;3.45;;;24.00;54.00;;;;;;5038816;28;20585;-83
2022/05/04 08:30:52;;;;;;;5.67;3.30;;;24.30;53.60;;;;;;5063935;28;20024;-83
2022/05/04 08:33:18;;;;;;;6.20;3.50;;;24.60;52.80;;;;;;5042247;28;20459;-84
2022/05/04 08:35:44;;;;;;;5.90;3.33;;;24.90;52.60;;;;;;5036634;28;20229;-83
2022/05/04 08:38:10;;;;;;;5.32;3.40;;;25.20;52.00;;;;;;5055013;28;20114;-83
2022/05/04 08:40:37;;;;;;;5.90;3.75;;;25.50;51.30;;;;;;5010569;28;20336;-83
2022/05/04 08:43:05;;;;;;;5.57;3.45;;;25.80;50.30;;;;;;5032255;28;20021;-83
2022/05/04 08:45:35;;;;;;;4.90;3.75;;;25.90;49.90;;;;;;5052897;28;20025;-83
2022/05/04 08:48:03;;;;;;;5.77;3.60;;;26.20;48.50;;;;;;5062988;28;20044;-84
2022/05/04 08:50:29;;;;;;;5.90;3.85;;;26.40;49.00;;;;;;5047541;28;20586;-83
2022/05/04 08:52:54;;;;;;;5.65;3.80;;;26.70;48.80;;;;;;5026161;28;20037;-83
2022/05/04 08:55:22;;;;;;;5.53;3.57;;;26.90;48.40;;;;;;5022588;28;20396;-84
2022/05/04 08:57:48;;;;;;;6.55;3.45;;;27.20;47.70;;;;;;5030279;28;20036;-83
2022/05/04 09:00:14;;;;;;;4.90;3.25;;;27.40;47.40;;;;;;5043429;28;20029;-83
2022/05/04 09:02:41;;;;;;;8.13;3.78;;;27.70;47.20;;;;;;5029502;28;20595;-84
2022/05/04 09:05:19;;;;;;;6.53;3.92;;;28.00;46.40;;;;;;5042033;28;20021;-84
2022/05/04 09:07:47;;;;;;;6.20;3.83;;;28.20;42.80;;;;;;5054464;28;20206;-83
2022/05/04 09:10:21;;;;;;;4.60;3.45;;;28.30;43.90;;;;;;5051646;28;20060;-83
2022/05/04 09:12:48;;;;;;;5.68;3.60;;;28.50;43.40;;;;;;5040236;28;20454;-84
2022/05/04 09:15:34;;;;;;;6.80;3.60;;;28.60;43.50;;;;;;5066171;28;20504;-83
2022/05/04 09:18:08;;;;;;;5.60;4.03;;;28.60;40.80;;;;;;5057533;28;20032;-83
2022/05/04 09:20:45;;;;;;;5.87;3.50;;;28.70;41.80;;;;;;5033856;28;20055;-82
2022/05/04 09:23:32;;;;;;;5.03;3.60;;;28.80;41.30;;;;;;5073097;28;20024;-83
2022/05/04 09:26:05;;;;;;;5.75;3.58;;;28.90;39.30;;;;;;5063589;28;20401;-84
2022/05/04 09:28:31;;;;;;;5.00;3.72;;;29.10;40.80;;;;;;5004902;28;20167;-84
2022/05/04 09:30:58;;;;;;;6.25;4.05;;;29.20;41.40;;;;;;5048649;28;20088;-84
2022/05/04 09:33:29;;;;;;;5.40;3.70;;;29.30;41.00;;;;;;5030475;28;20028;-83
2022/05/04 09:35:56;;;;;;;5.10;3.50;;;29.60;40.10;;;;;;5065357;28;20295;-84
2022/05/04 09:46:46;;;;;;;5.60;3.77;;;30.00;38.40;;;;;;5059092;28;20040;-84
2022/05/04 09:49:27;;;;;;;6.25;4.07;;;30.10;38.50;;;;;;5045606;28;20040;-84
2022/05/04 09:51:54;;;;;;;4.90;3.55;;;30.20;38.20;;;;;;5052194;28;20039;-84
2022/05/04 09:54:23;;;;;;;6.05;4.05;;;30.30;38.70;;;;;;5072260;28;20032;-84
2022/05/04 09:56:51;;;;;;;5.00;3.85;;;30.50;37.80;;;;;;5062868;28;20086;-84
2022/05/04 09:59:21;;;;;;;4.83;3.70;;;30.80;37.80;;;;;;5009954;28;20040;-83
2022/05/04 10:01:48;;;;;;;6.10;3.60;;;31.00;37.40;;;;;;5054524;28;20028;-85
2022/05/04 10:04:15;;;;;;;4.60;3.63;;;31.10;37.30;;;;;;5036650;28;20115;-84
2022/05/04 10:06:41;;;;;;;5.32;3.88;;;31.30;37.10;;;;;;5054787;28;20359;-84
2022/05/04 10:09:07;;;;;;;5.50;3.53;;;31.50;36.70;;;;;;5053577;28;20476;-84
2022/05/04 10:11:34;;;;;;;6.80;3.97;;;31.70;36.20;;;;;;5048917;28;20539;-84
2022/05/04 10:14:18;;;;;;;4.68;3.00;;;31.90;35.80;;;;;;5038368;28;20127;-83
2022/05/04 10:16:56;;;;;;;5.07;3.58;;;31.90;34.30;;;;;;5051729;28;20256;-84
2022/05/04 10:19:47;;;;;;;5.10;3.28;;;32.00;34.10;;;;;;5049026;28;20040;-84
2022/05/04 10:22:20;;;;;;;4.63;3.17;;;32.00;33.10;;;;;;5051962;28;20304;-83
2022/05/04 10:24:46;;;;;;;5.93;3.50;;;32.00;34.00;;;;;;5039203;28;20039;-82
2022/05/04 10:27:30;;;;;;;4.78;3.33;;;32.10;34.60;;;;;;5060762;28;20584;-85
2022/05/04 10:32:46;;;;;;;5.03;3.30;;;32.40;33.40;;;;;;5073402;28;20028;-84
2022/05/04 10:35:34;;;;;;;4.93;3.28;;;32.50;33.70;;;;;;5063266;28;20036;-84
2022/05/04 10:37:59;;;;;;;4.57;3.30;;;32.70;31.90;;;;;;5039126;28;20119;-84
2022/05/04 10:40:31;;;;;;;5.28;3.60;;;32.80;33.40;;;;;;5040821;28;20043;-84
2022/05/04 10:43:12;;;;;;;4.60;3.42;;;32.90;32.80;;;;;;5034857;28;20463;-84
2022/05/04 10:45:40;;;;;;;6.27;3.80;;;33.00;30.70;;;;;;5016064;28;20041;-84
2022/05/04 10:48:18;;;;;;;5.07;3.67;;;33.20;32.20;;;;;;5031992;28;20043;-85
2022/05/04 10:50:57;;;;;;;4.90;3.60;;;33.30;31.30;;;;;;5043329;28;20134;-85
2022/05/04 10:53:26;;;;;;;6.13;3.85;;;33.30;31.30;;;;;;5046658;28;20464;-84
2022/05/04 10:56:03;;;;;;;5.32;3.60;;;33.30;30.60;;;;;;5051681;28;20041;-84
2022/05/04 10:58:56;;;;;;;4.20;3.30;;;33.30;30.30;;;;;;5032108;28;20462;-84
2022/05/04 11:01:32;;;;;;;4.80;3.00;;;33.30;29.80;;;;;;5011901;28;20519;-84
2022/05/04 11:04:03;;;;;;;4.93;3.80;;;33.30;30.80;;;;;;5039272;28;20036;-84
2022/05/04 11:06:31;;;;;;;5.70;3.70;;;33.40;30.00;;;;;;5046350;28;20039;-84
2022/05/04 11:09:04;;;;;;;6.82;3.58;;;33.40;29.90;;;;;;5038964;28;20064;-84
2022/05/04 11:11:31;;;;;;;4.23;3.30;;;33.40;29.70;;;;;;5071327;28;20028;-85
2022/05/04 11:13:56;;;;;;;5.10;3.40;;;33.50;30.00;;;;;;5056885;28;20028;-84
2022/05/04 11:16:24;;;;;;;4.72;3.20;;;33.60;30.00;;;;;;5007436;28;20028;-82
2022/05/04 11:18:50;;;;;;;7.17;3.77;;;33.70;29.80;;;;;;5044215;28;20152;-83
2022/05/04 11:21:17;;;;;;;6.50;3.67;;;33.90;29.60;;;;;;5045810;28;20064;-84
2022/05/04 11:23:56;;;;;;;5.95;4.00;;;33.90;29.20;;;;;;5047294;28;20041;-84
2022/05/04 11:26:33;;;;;;;5.15;3.72;;;33.90;28.80;;;;;;5071309;28;20033;-86
2022/05/04 11:28:59;;;;;;;6.65;3.60;;;33.80;28.30;;;;;;5048596;28;20474;-84
2022/05/04 11:31:25;;;;;;;5.27;3.37;;;33.80;29.00;;;;;;5014350;28;20184;-83
2022/05/04 11:33:51;;;;;;;5.60;4.00;;;33.90;29.10;;;;;;5040218;28;20020;-84
2022/05/04 11:36:22;;;;;;;6.55;4.10;;;34.00;29.10;;;;;;5030326;28;20036;-84
2022/05/04 11:38:48;;;;;;;6.30;3.87;;;34.20;28.50;;;;;;5023505;28;20032;-84
2022/05/04 11:41:15;;;;;;;5.90;3.45;;;34.30;28.70;;;;;;5035937;28;20104;-84
2022/05/04 11:43:41;;;;;;;6.30;4.15;;;34.50;28.70;;;;;;5039609;28;20036;-84
2022/05/04 11:46:09;;;;;;;6.13;4.28;;;34.60;28.40;;;;;;5025555;28;20257;-84
2022/05/04 11:48:43;;;;;;;6.50;4.22;;;34.80;28.30;;;;;;5044401;28;20036;-84
2022/05/04 11:51:10;;;;;;;6.80;4.43;;;34.80;27.50;;;;;;5028601;28;20283;-85
2022/05/04 11:53:36;;;;;;;6.15;4.40;;;34.90;28.00;;;;;;5032006;28;20031;-84
2022/05/04 11:56:06;;;;;;;7.30;4.50;;;34.90;27.60;;;;;;5039604;28;20608;-85
2022/05/04 11:58:34;;;;;;;6.82;4.50;;;34.80;27.10;;;;;;5071161;28;20093;-84
2022/05/04 12:01:01;;;;;;;6.50;4.70;;;34.90;27.50;;;;;;5005769;28;20044;-83
2022/05/04 12:03:30;;;;;;;6.97;5.00;;;34.90;27.20;;;;;;5026858;28;20482;-84
2022/05/04 12:05:56;;;;;;;6.85;4.90;;;34.90;27.00;;;;;;5049377;28;20596;-84
2022/05/04 12:08:24;;;;;;;6.95;4.85;;;34.70;27.00;;;;;;5045156;28;20028;-83
2022/05/04 12:10:50;;;;;;;6.35;4.70;;;34.60;27.20;;;;;;5045016;28;20460;-84
2022/05/04 12:13:23;;;;;;;6.68;4.50;;;34.60;27.30;;;;;;5035673;28;20032;-84
2022/05/04 12:15:50;;;;;;;6.13;4.43;;;34.50;27.00;;;;;;5006413;28;20045;-83
2022/05/04 12:18:16;;;;;;;7.03;5.07;;;34.60;27.30;;;;;;5032199;28;20047;-84
2022/05/04 12:20:48;;;;;;;6.72;5.22;;;34.60;27.00;;;;;;5022462;28;20036;-84
2022/05/04 12:23:15;;;;;;;6.20;4.47;;;34.50;26.20;;;;;;5028332;28;20036;-84
2022/05/04 12:25:42;;;;;;;5.43;4.00;;;34.40;26.40;;;;;;5029134;28;20072;-84
2022/05/04 12:28:09;;;;;;;5.40;3.80;;;34.30;26.60;;;;;;5035375;28;20045;-84
2022/05/04 12:33:34;;;;;;;4.70;3.75;;;34.40;26.50;;;;;;5014499;28;20605;-84
2022/05/04 12:36:04;;;;;;;4.95;3.65;;;34.50;26.50;;;;;;5025607;28;20021;-84
2022/05/04 12:38:32;;;;;;;4.40;3.63;;;34.70;26.80;;;;;;5039677;28;20040;-84
2022/05/04 12:40:57;;;;;;;5.95;3.75;;;34.80;26.70;;;;;;5022709;28;20704;-84
2022/05/04 12:43:24;;;;;;;4.88;3.20;;;34.80;26.70;;;;;;5033006;28;20047;-83
2022/05/04 12:45:54;;;;;;;4.10;2.90;;;35.00;26.70;;;;;;5026863;28;20037;-84
2022/05/04 12:48:24;;;;;;;4.47;3.53;;;35.10;26.60;;;;;;5019326;28;20033;-84
2022/05/04 12:50:51;;;;;;;4.72;3.55;;;35.20;26.30;;;;;;5021283;28;20032;-85
2022/05/04 12:53:17;;;;;;;6.20;3.72;;;35.20;25.90;;;;;;5049551;28;20078;-83
2022/05/04 12:58:27;;;;;;;5.20;3.50;;;34.90;25.30;;;;;;5038936;28;20038;-84
2022/05/04 13:00:52;;;;;;;4.30;3.20;;;34.70;25.30;;;;;;5041786;28;20044;-84
2022/05/04 13:03:18;;;;;;;3.80;2.83;;;34.50;25.70;;;;;;5035975;28;20127;-83
2022/05/04 13:05:43;;;;;;;4.57;3.08;;;34.50;25.90;;;;;;5016271;28;20094;-84
2022/05/04 13:08:10;;;;;;;4.57;2.63;;;34.50;25.90;;;;;;5028003;28;20253;-84
2022/05/04 13:10:36;;;;;;;3.58;2.78;;;34.50;26.00;;;;;;5026941;28;20551;-83
2022/05/04 13:13:02;;;;;;;3.72;2.80;;;34.60;26.00;;;;;;5032289;28;20032;-84
2022/05/04 13:15:28;;;;;;;6.33;3.37;;;34.60;25.60;;;;;;5038225;28;20033;-84
2022/05/04 13:17:55;;;;;;;6.00;3.80;;;34.50;25.70;;;;;;5028203;28;20095;-84
2022/05/04 13:20:21;;;;;;;5.07;3.22;;;34.40;25.10;;;;;;5021313;28;20032;-84
2022/05/04 13:22:47;;;;;;;4.40;2.93;;;34.20;25.30;;;;;;5023154;28;20077;-84
2022/05/04 13:25:15;;;;;;;4.70;3.10;;;34.10;25.40;;;;;;5038597;28;20110;-84
2022/05/04 13:27:41;;;;;;;3.63;2.80;;;34.00;25.70;;;;;;5061712;28;20044;-84
2022/05/04 13:30:07;;;;;;;3.97;2.60;;;34.00;25.80;;;;;;5030676;28;20080;-84